sensor_id;sensor_type;location;lat;lon;timestamp;P1;durP1;ratioP1;P2;durP2;ratioP2
16832;SDS011;8533;48.426;10.868;2023-10-09T00:00:53;17.53;;;5.10;;
16832;SDS011;8533;48.426;10.868;2023-10-09T00:03:26;12.20;;;5.63;;
16832;SDS011;8533;48.426;10.868;2023-10-09T00:05:53;15.23;;;5.87;;
16832;SDS011;8533;48.426;10.868;2023-10-09T00:08:19;10.80;;;5.50;;
16832;SDS011;8533;48.426;10.868;2023-10-09T00:10:51;12.33;;;5.17;;
16832;SDS011;8533;48.426;10.868;2023-10-09T00:13:20;12.67;;;5.57;;
16832;SDS011;8533;48.426;10.868;2023-10-09T00:15:55;16.03;;;5.77;;
16832;SDS011;8533;48.426;10.868;2023-10-09T00:18:33;14.93;;;5.30;;
16832;SDS011;8533;48.426;10.868;2023-10-09T00:20:59;16.60;;;5.47;;
16832;SDS011;8533;48.426;10.868;2023-10-09T00:23:40;16.53;;;6.57;;
16832;SDS011;8533;48.426;10.868;2023-10-09T00:26:06;21.63;;;5.97;;
16832;SDS011;8533;48.426;10.868;2023-10-09T00:28:34;15.23;;;5.13;;
16832;SDS011;8533;48.426;10.868;2023-10-09T00:31:00;11.83;;;5.00;;
16832;SDS011;8533;48.426;10.868;2023-10-09T00:33:29;16.30;;;6.10;;
16832;SDS011;8533;48.426;10.868;2023-10-09T00:35:55;11.77;;;5.30;;
16832;SDS011;8533;48.426;10.868;2023-10-09T00:38:20;12.87;;;6.67;;
16832;SDS011;8533;48.426;10.868;2023-10-09T00:40:45;13.67;;;4.93;;
16832;SDS011;8533;48.426;10.868;2023-10-09T00:43:22;12.67;;;5.37;;
16832;SDS011;8533;48.426;10.868;2023-10-09T00:45:54;13.37;;;4.80;;
16832;SDS011;8533;48.426;10.868;2023-10-09T00:48:21;12.57;;;4.80;;
16832;SDS011;8533;48.426;10.868;2023-10-09T00:50:55;19.03;;;5.43;;
16832;SDS011;8533;48.426;10.868;2023-10-09T00:53:24;13.17;;;4.90;;
16832;SDS011;8533;48.426;10.868;2023-10-09T00:55:58;14.97;;;4.90;;
16832;SDS011;8533;48.426;10.868;2023-10-09T00:58:36;16.03;;;5.37;;
16832;SDS011;8533;48.426;10.868;2023-10-09T01:01:02;15.17;;;5.83;;
16832;SDS011;8533;48.426;10.868;2023-10-09T01:03:29;13.53;;;5.40;;
16832;SDS011;8533;48.426;10.868;2023-10-09T01:05:59;21.57;;;5.10;;
16832;SDS011;8533;48.426;10.868;2023-10-09T01:08:41;16.97;;;5.57;;
16832;SDS011;8533;48.426;10.868;2023-10-09T01:13:39;16.87;;;5.57;;
16832;SDS011;8533;48.426;10.868;2023-10-09T01:16:11;14.67;;;4.70;;
16832;SDS011;8533;48.426;10.868;2023-10-09T01:18:45;11.73;;;5.17;;
16832;SDS011;8533;48.426;10.868;2023-10-09T01:21:14;16.57;;;5.77;;
16832;SDS011;8533;48.426;10.868;2023-10-09T01:23:45;11.00;;;5.37;;
16832;SDS011;8533;48.426;10.868;2023-10-09T01:26:46;10.60;;;4.87;;
16832;SDS011;8533;48.426;10.868;2023-10-09T01:29:19;13.53;;;5.00;;
16832;SDS011;8533;48.426;10.868;2023-10-09T01:31:52;12.60;;;4.90;;
16832;SDS011;8533;48.426;10.868;2023-10-09T01:34:25;10.80;;;5.00;;
16832;SDS011;8533;48.426;10.868;2023-10-09T01:37:07;14.83;;;5.33;;
16832;SDS011;8533;48.426;10.868;2023-10-09T01:39:42;15.27;;;5.33;;
16832;SDS011;8533;48.426;10.868;2023-10-09T01:42:08;14.20;;;5.30;;
16832;SDS011;8533;48.426;10.868;2023-10-09T01:44:34;13.83;;;5.70;;
16832;SDS011;8533;48.426;10.868;2023-10-09T01:47:00;15.27;;;5.80;;
16832;SDS011;8533;48.426;10.868;2023-10-09T01:49:32;15.67;;;4.80;;
16832;SDS011;8533;48.426;10.868;2023-10-09T01:51:58;12.47;;;4.77;;
16832;SDS011;8533;48.426;10.868;2023-10-09T01:54:26;13.93;;;5.77;;
16832;SDS011;8533;48.426;10.868;2023-10-09T01:57:08;13.70;;;5.97;;
16832;SDS011;8533;48.426;10.868;2023-10-09T01:59:40;14.03;;;5.10;;
16832;SDS011;8533;48.426;10.868;2023-10-09T02:02:12;13.83;;;5.33;;
16832;SDS011;8533;48.426;10.868;2023-10-09T02:04:57;18.87;;;5.40;;
16832;SDS011;8533;48.426;10.868;2023-10-09T02:07:50;13.37;;;5.10;;
16832;SDS011;8533;48.426;10.868;2023-10-09T02:10:17;21.63;;;6.17;;
16832;SDS011;8533;48.426;10.868;2023-10-09T02:12:56;20.47;;;5.87;;
16832;SDS011;8533;48.426;10.868;2023-10-09T02:15:30;13.40;;;5.10;;
16832;SDS011;8533;48.426;10.868;2023-10-09T02:18:08;17.37;;;5.80;;
16832;SDS011;8533;48.426;10.868;2023-10-09T02:20:49;14.73;;;5.40;;
16832;SDS011;8533;48.426;10.868;2023-10-09T02:23:41;17.00;;;5.77;;
16832;SDS011;8533;48.426;10.868;2023-10-09T02:26:10;9.73;;;5.20;;
16832;SDS011;8533;48.426;10.868;2023-10-09T02:28:44;13.00;;;5.03;;
16832;SDS011;8533;48.426;10.868;2023-10-09T02:31:18;13.33;;;5.53;;
16832;SDS011;8533;48.426;10.868;2023-10-09T02:33:46;14.10;;;5.57;;
16832;SDS011;8533;48.426;10.868;2023-10-09T02:36:13;16.37;;;5.40;;
16832;SDS011;8533;48.426;10.868;2023-10-09T02:38:38;8.93;;;5.03;;
16832;SDS011;8533;48.426;10.868;2023-10-09T02:41:07;13.53;;;5.83;;
16832;SDS011;8533;48.426;10.868;2023-10-09T02:43:53;16.50;;;5.97;;
16832;SDS011;8533;48.426;10.868;2023-10-09T02:46:20;21.47;;;5.77;;
16832;SDS011;8533;48.426;10.868;2023-10-09T02:48:53;13.73;;;5.63;;
16832;SDS011;8533;48.426;10.868;2023-10-09T02:51:22;10.80;;;4.90;;
16832;SDS011;8533;48.426;10.868;2023-10-09T02:53:51;11.37;;;5.23;;
16832;SDS011;8533;48.426;10.868;2023-10-09T02:56:17;18.73;;;6.43;;
16832;SDS011;8533;48.426;10.868;2023-10-09T02:58:48;18.40;;;5.73;;
16832;SDS011;8533;48.426;10.868;2023-10-09T03:01:15;18.27;;;5.80;;
16832;SDS011;8533;48.426;10.868;2023-10-09T03:03:40;14.13;;;5.40;;
16832;SDS011;8533;48.426;10.868;2023-10-09T03:06:12;16.60;;;5.30;;
16832;SDS011;8533;48.426;10.868;2023-10-09T03:08:39;13.63;;;5.03;;
16832;SDS011;8533;48.426;10.868;2023-10-09T03:11:06;9.30;;;5.13;;
16832;SDS011;8533;48.426;10.868;2023-10-09T03:13:39;18.20;;;5.47;;
16832;SDS011;8533;48.426;10.868;2023-10-09T03:16:12;16.90;;;6.07;;
16832;SDS011;8533;48.426;10.868;2023-10-09T03:18:41;17.60;;;7.57;;
16832;SDS011;8533;48.426;10.868;2023-10-09T03:21:07;14.03;;;5.57;;
16832;SDS011;8533;48.426;10.868;2023-10-09T03:23:33;15.17;;;6.03;;
16832;SDS011;8533;48.426;10.868;2023-10-09T03:25:59;10.90;;;5.50;;
16832;SDS011;8533;48.426;10.868;2023-10-09T03:28:24;12.30;;;5.47;;
16832;SDS011;8533;48.426;10.868;2023-10-09T03:30:49;13.37;;;5.50;;
16832;SDS011;8533;48.426;10.868;2023-10-09T03:33:16;9.80;;;5.33;;
16832;SDS011;8533;48.426;10.868;2023-10-09T03:35:42;13.93;;;5.53;;
16832;SDS011;8533;48.426;10.868;2023-10-09T03:38:08;17.77;;;5.43;;
16832;SDS011;8533;48.426;10.868;2023-10-09T03:40:44;14.17;;;5.57;;
16832;SDS011;8533;48.426;10.868;2023-10-09T03:43:12;17.63;;;5.83;;
16832;SDS011;8533;48.426;10.868;2023-10-09T03:45:38;15.47;;;6.27;;
16832;SDS011;8533;48.426;10.868;2023-10-09T03:48:10;13.30;;;6.23;;
16832;SDS011;8533;48.426;10.868;2023-10-09T03:50:36;15.23;;;5.67;;
16832;SDS011;8533;48.426;10.868;2023-10-09T03:53:02;17.07;;;5.27;;
16832;SDS011;8533;48.426;10.868;2023-10-09T03:55:31;11.40;;;5.50;;
16832;SDS011;8533;48.426;10.868;2023-10-09T03:57:57;16.83;;;6.03;;
16832;SDS011;8533;48.426;10.868;2023-10-09T04:00:24;17.83;;;5.97;;
16832;SDS011;8533;48.426;10.868;2023-10-09T04:02:53;17.57;;;6.17;;
16832;SDS011;8533;48.426;10.868;2023-10-09T04:05:19;13.67;;;5.43;;
16832;SDS011;8533;48.426;10.868;2023-10-09T04:07:45;11.57;;;6.13;;
16832;SDS011;8533;48.426;10.868;2023-10-09T04:10:10;13.33;;;6.13;;
16832;SDS011;8533;48.426;10.868;2023-10-09T04:12:54;16.97;;;6.33;;
16832;SDS011;8533;48.426;10.868;2023-10-09T04:15:23;18.30;;;6.03;;
16832;SDS011;8533;48.426;10.868;2023-10-09T04:17:49;12.03;;;5.23;;
16832;SDS011;8533;48.426;10.868;2023-10-09T04:20:16;15.53;;;5.70;;
16832;SDS011;8533;48.426;10.868;2023-10-09T04:22:45;12.73;;;5.00;;
16832;SDS011;8533;48.426;10.868;2023-10-09T04:25:25;15.87;;;5.70;;
16832;SDS011;8533;48.426;10.868;2023-10-09T04:27:51;15.33;;;6.07;;
16832;SDS011;8533;48.426;10.868;2023-10-09T04:30:18;11.60;;;5.37;;
16832;SDS011;8533;48.426;10.868;2023-10-09T04:32:44;11.23;;;5.47;;
16832;SDS011;8533;48.426;10.868;2023-10-09T04:35:10;11.33;;;5.70;;
16832;SDS011;8533;48.426;10.868;2023-10-09T04:37:47;11.83;;;5.67;;
16832;SDS011;8533;48.426;10.868;2023-10-09T04:40:17;12.07;;;5.07;;
16832;SDS011;8533;48.426;10.868;2023-10-09T04:43:02;12.37;;;5.20;;
16832;SDS011;8533;48.426;10.868;2023-10-09T04:45:31;15.70;;;6.07;;
16832;SDS011;8533;48.426;10.868;2023-10-09T04:48:09;16.13;;;5.10;;
16832;SDS011;8533;48.426;10.868;2023-10-09T04:50:35;13.03;;;5.00;;
16832;SDS011;8533;48.426;10.868;2023-10-09T04:53:01;12.40;;;5.27;;
16832;SDS011;8533;48.426;10.868;2023-10-09T04:55:47;15.97;;;5.93;;
16832;SDS011;8533;48.426;10.868;2023-10-09T04:58:25;16.53;;;5.73;;
16832;SDS011;8533;48.426;10.868;2023-10-09T05:00:51;12.73;;;4.90;;
16832;SDS011;8533;48.426;10.868;2023-10-09T05:03:23;19.00;;;5.93;;
16832;SDS011;8533;48.426;10.868;2023-10-09T05:05:54;11.63;;;4.90;;
16832;SDS011;8533;48.426;10.868;2023-10-09T05:08:45;21.33;;;5.70;;
16832;SDS011;8533;48.426;10.868;2023-10-09T05:11:11;12.57;;;4.90;;
16832;SDS011;8533;48.426;10.868;2023-10-09T05:13:55;16.73;;;5.70;;
16832;SDS011;8533;48.426;10.868;2023-10-09T05:16:22;21.67;;;6.30;;
16832;SDS011;8533;48.426;10.868;2023-10-09T05:18:51;15.83;;;5.67;;
16832;SDS011;8533;48.426;10.868;2023-10-09T05:21:24;16.40;;;5.37;;
16832;SDS011;8533;48.426;10.868;2023-10-09T05:23:55;11.33;;;5.10;;
16832;SDS011;8533;48.426;10.868;2023-10-09T05:26:48;16.97;;;5.73;;
16832;SDS011;8533;48.426;10.868;2023-10-09T05:29:15;10.97;;;5.53;;
16832;SDS011;8533;48.426;10.868;2023-10-09T05:31:49;15.67;;;5.43;;
16832;SDS011;8533;48.426;10.868;2023-10-09T05:34:22;12.73;;;5.07;;
16832;SDS011;8533;48.426;10.868;2023-10-09T05:36:49;11.27;;;4.90;;
16832;SDS011;8533;48.426;10.868;2023-10-09T05:39:14;15.73;;;4.40;;
16832;SDS011;8533;48.426;10.868;2023-10-09T05:42:02;11.83;;;3.90;;
16832;SDS011;8533;48.426;10.868;2023-10-09T05:44:34;11.83;;;4.23;;
16832;SDS011;8533;48.426;10.868;2023-10-09T05:47:18;15.73;;;4.93;;
16832;SDS011;8533;48.426;10.868;2023-10-09T05:49:59;12.93;;;4.37;;
16832;SDS011;8533;48.426;10.868;2023-10-09T05:52:33;11.80;;;4.53;;
16832;SDS011;8533;48.426;10.868;2023-10-09T05:54:59;16.03;;;3.77;;
16832;SDS011;8533;48.426;10.868;2023-10-09T05:57:43;11.03;;;3.87;;
16832;SDS011;8533;48.426;10.868;2023-10-09T06:00:24;9.93;;;3.50;;
16832;SDS011;8533;48.426;10.868;2023-10-09T06:03:08;10.37;;;3.70;;
16832;SDS011;8533;48.426;10.868;2023-10-09T06:05:55;15.23;;;4.33;;
16832;SDS011;8533;48.426;10.868;2023-10-09T06:08:21;15.80;;;4.13;;
16832;SDS011;8533;48.426;10.868;2023-10-09T06:10:52;17.73;;;4.37;;
16832;SDS011;8533;48.426;10.868;2023-10-09T06:13:31;8.23;;;3.60;;
16832;SDS011;8533;48.426;10.868;2023-10-09T06:16:04;12.27;;;4.13;;
16832;SDS011;8533;48.426;10.868;2023-10-09T06:18:55;11.20;;;3.70;;
16832;SDS011;8533;48.426;10.868;2023-10-09T06:21:32;19.30;;;4.00;;
16832;SDS011;8533;48.426;10.868;2023-10-09T06:24:06;12.40;;;3.80;;
16832;SDS011;8533;48.426;10.868;2023-10-09T06:26:55;13.53;;;3.60;;
16832;SDS011;8533;48.426;10.868;2023-10-09T06:29:24;10.47;;;3.60;;
16832;SDS011;8533;48.426;10.868;2023-10-09T06:32:01;16.17;;;4.13;;
16832;SDS011;8533;48.426;10.868;2023-10-09T06:37:46;12.50;;;3.63;;
16832;SDS011;8533;48.426;10.868;2023-10-09T06:43:19;16.63;;;3.23;;
16832;SDS011;8533;48.426;10.868;2023-10-09T06:45:48;10.47;;;3.80;;
16832;SDS011;8533;48.426;10.868;2023-10-09T06:48:20;12.80;;;3.97;;
16832;SDS011;8533;48.426;10.868;2023-10-09T06:51:16;15.30;;;3.47;;
16832;SDS011;8533;48.426;10.868;2023-10-09T06:53:57;13.27;;;3.23;;
16832;SDS011;8533;48.426;10.868;2023-10-09T06:56:31;13.37;;;3.70;;
16832;SDS011;8533;48.426;10.868;2023-10-09T06:58:56;15.77;;;3.17;;
16832;SDS011;8533;48.426;10.868;2023-10-09T07:01:41;13.80;;;3.37;;
16832;SDS011;8533;48.426;10.868;2023-10-09T07:04:12;11.00;;;3.20;;
16832;SDS011;8533;48.426;10.868;2023-10-09T07:06:47;13.60;;;4.50;;
16832;SDS011;8533;48.426;10.868;2023-10-09T07:09:14;14.47;;;4.00;;
16832;SDS011;8533;48.426;10.868;2023-10-09T07:11:40;15.23;;;3.20;;
16832;SDS011;8533;48.426;10.868;2023-10-09T07:16:32;8.50;;;3.37;;
16832;SDS011;8533;48.426;10.868;2023-10-09T07:19:04;14.97;;;3.93;;
16832;SDS011;8533;48.426;10.868;2023-10-09T07:22:00;11.63;;;3.47;;
16832;SDS011;8533;48.426;10.868;2023-10-09T07:24:29;12.13;;;3.87;;
16832;SDS011;8533;48.426;10.868;2023-10-09T07:27:11;10.90;;;3.60;;
16832;SDS011;8533;48.426;10.868;2023-10-09T07:29:39;15.67;;;3.57;;
16832;SDS011;8533;48.426;10.868;2023-10-09T07:32:16;17.13;;;4.00;;
16832;SDS011;8533;48.426;10.868;2023-10-09T07:34:49;14.47;;;4.33;;
16832;SDS011;8533;48.426;10.868;2023-10-09T07:37:18;13.17;;;3.10;;
16832;SDS011;8533;48.426;10.868;2023-10-09T07:39:44;10.87;;;3.50;;
16832;SDS011;8533;48.426;10.868;2023-10-09T07:42:15;12.87;;;4.03;;
16832;SDS011;8533;48.426;10.868;2023-10-09T07:44:43;10.37;;;4.10;;
16832;SDS011;8533;48.426;10.868;2023-10-09T07:47:17;12.37;;;3.67;;
16832;SDS011;8533;48.426;10.868;2023-10-09T07:50:19;12.10;;;3.80;;
16832;SDS011;8533;48.426;10.868;2023-10-09T07:52:46;11.93;;;3.60;;
16832;SDS011;8533;48.426;10.868;2023-10-09T07:55:11;11.33;;;3.70;;
16832;SDS011;8533;48.426;10.868;2023-10-09T07:57:51;16.03;;;4.00;;
16832;SDS011;8533;48.426;10.868;2023-10-09T08:00:17;11.40;;;3.23;;
16832;SDS011;8533;48.426;10.868;2023-10-09T08:03:01;11.30;;;3.77;;
16832;SDS011;8533;48.426;10.868;2023-10-09T08:05:27;14.03;;;3.53;;
16832;SDS011;8533;48.426;10.868;2023-10-09T08:07:59;15.67;;;3.43;;
16832;SDS011;8533;48.426;10.868;2023-10-09T08:11:03;16.80;;;3.30;;
16832;SDS011;8533;48.426;10.868;2023-10-09T08:13:47;11.43;;;4.43;;
16832;SDS011;8533;48.426;10.868;2023-10-09T08:16:21;14.80;;;3.97;;
16832;SDS011;8533;48.426;10.868;2023-10-09T08:18:49;10.40;;;2.80;;
16832;SDS011;8533;48.426;10.868;2023-10-09T08:21:19;13.43;;;3.80;;
16832;SDS011;8533;48.426;10.868;2023-10-09T08:23:45;18.37;;;3.53;;
16832;SDS011;8533;48.426;10.868;2023-10-09T08:26:17;13.63;;;3.63;;
16832;SDS011;8533;48.426;10.868;2023-10-09T08:28:54;11.57;;;3.67;;
16832;SDS011;8533;48.426;10.868;2023-10-09T08:31:40;12.27;;;4.13;;
16832;SDS011;8533;48.426;10.868;2023-10-09T08:34:14;11.40;;;3.43;;
16832;SDS011;8533;48.426;10.868;2023-10-09T08:37:02;14.60;;;3.93;;
16832;SDS011;8533;48.426;10.868;2023-10-09T08:39:29;14.10;;;4.10;;
16832;SDS011;8533;48.426;10.868;2023-10-09T08:41:58;13.70;;;3.53;;
16832;SDS011;8533;48.426;10.868;2023-10-09T08:44:24;18.03;;;3.60;;
16832;SDS011;8533;48.426;10.868;2023-10-09T08:46:53;11.37;;;3.73;;
16832;SDS011;8533;48.426;10.868;2023-10-09T08:49:20;11.87;;;3.90;;
16832;SDS011;8533;48.426;10.868;2023-10-09T08:51:46;18.93;;;3.77;;
16832;SDS011;8533;48.426;10.868;2023-10-09T08:54:13;14.77;;;3.40;;
16832;SDS011;8533;48.426;10.868;2023-10-09T08:56:40;9.60;;;3.60;;
16832;SDS011;8533;48.426;10.868;2023-10-09T08:59:15;9.70;;;3.67;;
16832;SDS011;8533;48.426;10.868;2023-10-09T09:01:43;12.47;;;3.83;;
16832;SDS011;8533;48.426;10.868;2023-10-09T09:09:55;9.73;;;2.97;;
16832;SDS011;8533;48.426;10.868;2023-10-09T09:12:22;9.20;;;3.50;;
16832;SDS011;8533;48.426;10.868;2023-10-09T09:14:49;13.37;;;3.20;;
16832;SDS011;8533;48.426;10.868;2023-10-09T09:17:21;19.47;;;3.77;;
16832;SDS011;8533;48.426;10.868;2023-10-09T09:19:48;13.13;;;3.50;;
16832;SDS011;8533;48.426;10.868;2023-10-09T09:22:15;15.93;;;5.70;;
16832;SDS011;8533;48.426;10.868;2023-10-09T09:24:40;10.00;;;3.80;;
16832;SDS011;8533;48.426;10.868;2023-10-09T09:27:13;15.03;;;3.37;;
16832;SDS011;8533;48.426;10.868;2023-10-09T09:29:42;10.10;;;3.07;;
16832;SDS011;8533;48.426;10.868;2023-10-09T09:32:17;12.80;;;3.87;;
16832;SDS011;8533;48.426;10.868;2023-10-09T09:34:55;10.43;;;3.87;;
16832;SDS011;8533;48.426;10.868;2023-10-09T09:37:26;14.70;;;4.50;;
16832;SDS011;8533;48.426;10.868;2023-10-09T09:40:01;13.80;;;3.20;;
16832;SDS011;8533;48.426;10.868;2023-10-09T09:43:02;15.20;;;3.70;;
16832;SDS011;8533;48.426;10.868;2023-10-09T09:45:35;11.97;;;3.57;;
16832;SDS011;8533;48.426;10.868;2023-10-09T09:48:04;10.97;;;3.30;;
16832;SDS011;8533;48.426;10.868;2023-10-09T09:50:31;8.70;;;3.33;;
16832;SDS011;8533;48.426;10.868;2023-10-09T09:52:58;22.83;;;4.77;;
16832;SDS011;8533;48.426;10.868;2023-10-09T09:55:33;15.43;;;3.37;;
16832;SDS011;8533;48.426;10.868;2023-10-09T09:58:01;7.20;;;2.93;;
16832;SDS011;8533;48.426;10.868;2023-10-09T10:00:33;13.13;;;3.93;;
16832;SDS011;8533;48.426;10.868;2023-10-09T10:03:07;9.30;;;3.40;;
16832;SDS011;8533;48.426;10.868;2023-10-09T10:05:37;7.60;;;3.23;;
16832;SDS011;8533;48.426;10.868;2023-10-09T10:08:07;12.53;;;3.93;;
16832;SDS011;8533;48.426;10.868;2023-10-09T10:10:38;11.27;;;3.57;;
16832;SDS011;8533;48.426;10.868;2023-10-09T10:16:10;15.87;;;4.10;;
16832;SDS011;8533;48.426;10.868;2023-10-09T10:21:47;12.87;;;3.47;;
16832;SDS011;8533;48.426;10.868;2023-10-09T10:32:52;9.83;;;2.87;;
16832;SDS011;8533;48.426;10.868;2023-10-09T10:35:19;12.03;;;3.07;;
16832;SDS011;8533;48.426;10.868;2023-10-09T10:37:57;15.27;;;3.50;;
16832;SDS011;8533;48.426;10.868;2023-10-09T10:40:43;12.77;;;4.33;;
16832;SDS011;8533;48.426;10.868;2023-10-09T10:43:17;12.93;;;3.07;;
16832;SDS011;8533;48.426;10.868;2023-10-09T10:46:03;10.40;;;3.50;;
16832;SDS011;8533;48.426;10.868;2023-10-09T10:48:36;8.93;;;3.20;;
16832;SDS011;8533;48.426;10.868;2023-10-09T10:51:03;11.57;;;3.50;;
16832;SDS011;8533;48.426;10.868;2023-10-09T10:53:29;11.33;;;2.93;;
16832;SDS011;8533;48.426;10.868;2023-10-09T10:56:03;10.90;;;2.90;;
16832;SDS011;8533;48.426;10.868;2023-10-09T10:58:40;14.23;;;3.40;;
16832;SDS011;8533;48.426;10.868;2023-10-09T11:01:30;13.73;;;3.40;;
16832;SDS011;8533;48.426;10.868;2023-10-09T11:04:15;12.13;;;3.30;;
16832;SDS011;8533;48.426;10.868;2023-10-09T11:06:51;12.23;;;3.43;;
16832;SDS011;8533;48.426;10.868;2023-10-09T11:09:16;13.77;;;3.47;;
16832;SDS011;8533;48.426;10.868;2023-10-09T11:11:49;13.13;;;3.43;;
16832;SDS011;8533;48.426;10.868;2023-10-09T11:14:15;7.57;;;3.43;;
16832;SDS011;8533;48.426;10.868;2023-10-09T11:16:42;14.57;;;3.30;;
16832;SDS011;8533;48.426;10.868;2023-10-09T11:19:11;20.30;;;4.83;;
16832;SDS011;8533;48.426;10.868;2023-10-09T11:21:47;20.40;;;3.77;;
16832;SDS011;8533;48.426;10.868;2023-10-09T11:24:18;12.80;;;3.20;;
16832;SDS011;8533;48.426;10.868;2023-10-09T11:26:49;14.70;;;3.80;;
16832;SDS011;8533;48.426;10.868;2023-10-09T11:29:22;9.00;;;2.70;;
16832;SDS011;8533;48.426;10.868;2023-10-09T11:32:01;15.07;;;3.47;;
16832;SDS011;8533;48.426;10.868;2023-10-09T11:34:30;15.83;;;4.27;;
16832;SDS011;8533;48.426;10.868;2023-10-09T11:36:57;12.73;;;3.13;;
16832;SDS011;8533;48.426;10.868;2023-10-09T11:39:30;17.33;;;3.87;;
16832;SDS011;8533;48.426;10.868;2023-10-09T11:42:02;12.87;;;3.67;;
16832;SDS011;8533;48.426;10.868;2023-10-09T11:44:39;16.43;;;3.97;;
16832;SDS011;8533;48.426;10.868;2023-10-09T11:47:11;15.97;;;4.10;;
16832;SDS011;8533;48.426;10.868;2023-10-09T11:49:52;11.53;;;3.43;;
16832;SDS011;8533;48.426;10.868;2023-10-09T11:52:26;11.97;;;3.37;;
16832;SDS011;8533;48.426;10.868;2023-10-09T11:55:03;14.97;;;4.53;;
16832;SDS011;8533;48.426;10.868;2023-10-09T11:57:32;19.27;;;3.73;;
16832;SDS011;8533;48.426;10.868;2023-10-09T12:00:03;15.73;;;3.83;;
16832;SDS011;8533;48.426;10.868;2023-10-09T12:02:47;13.80;;;3.10;;
16832;SDS011;8533;48.426;10.868;2023-10-09T12:05:14;9.97;;;3.53;;
16832;SDS011;8533;48.426;10.868;2023-10-09T12:07:42;14.83;;;3.57;;
16832;SDS011;8533;48.426;10.868;2023-10-09T12:10:10;11.30;;;2.73;;
16832;SDS011;8533;48.426;10.868;2023-10-09T12:12:38;15.87;;;3.40;;
16832;SDS011;8533;48.426;10.868;2023-10-09T12:15:04;13.03;;;3.40;;
16832;SDS011;8533;48.426;10.868;2023-10-09T12:17:31;15.73;;;4.77;;
16832;SDS011;8533;48.426;10.868;2023-10-09T12:19:56;15.40;;;3.87;;
16832;SDS011;8533;48.426;10.868;2023-10-09T12:22:22;9.50;;;3.30;;
16832;SDS011;8533;48.426;10.868;2023-10-09T12:24:52;15.00;;;3.83;;
16832;SDS011;8533;48.426;10.868;2023-10-09T12:27:17;14.70;;;3.07;;
16832;SDS011;8533;48.426;10.868;2023-10-09T12:29:45;12.07;;;3.17;;
16832;SDS011;8533;48.426;10.868;2023-10-09T12:32:11;17.67;;;3.77;;
16832;SDS011;8533;48.426;10.868;2023-10-09T12:34:36;12.70;;;3.47;;
16832;SDS011;8533;48.426;10.868;2023-10-09T12:37:03;11.13;;;3.47;;
16832;SDS011;8533;48.426;10.868;2023-10-09T12:39:29;13.53;;;3.37;;
16832;SDS011;8533;48.426;10.868;2023-10-09T12:41:58;19.53;;;3.43;;
16832;SDS011;8533;48.426;10.868;2023-10-09T12:44:31;8.57;;;3.30;;
16832;SDS011;8533;48.426;10.868;2023-10-09T12:47:07;15.30;;;3.20;;
16832;SDS011;8533;48.426;10.868;2023-10-09T12:49:36;11.63;;;3.23;;
16832;SDS011;8533;48.426;10.868;2023-10-09T12:52:05;14.53;;;3.33;;
16832;SDS011;8533;48.426;10.868;2023-10-09T12:54:40;12.30;;;3.53;;
16832;SDS011;8533;48.426;10.868;2023-10-09T12:57:06;16.90;;;3.53;;
16832;SDS011;8533;48.426;10.868;2023-10-09T12:59:38;10.77;;;3.47;;
16832;SDS011;8533;48.426;10.868;2023-10-09T13:02:05;13.43;;;3.57;;
16832;SDS011;8533;48.426;10.868;2023-10-09T13:04:31;15.70;;;3.10;;
16832;SDS011;8533;48.426;10.868;2023-10-09T13:06:57;18.87;;;3.97;;
16832;SDS011;8533;48.426;10.868;2023-10-09T13:09:27;18.53;;;4.17;;
16832;SDS011;8533;48.426;10.868;2023-10-09T13:12:07;15.33;;;3.67;;
16832;SDS011;8533;48.426;10.868;2023-10-09T13:14:34;14.10;;;4.00;;
16832;SDS011;8533;48.426;10.868;2023-10-09T13:17:00;14.00;;;4.17;;
16832;SDS011;8533;48.426;10.868;2023-10-09T13:19:33;12.33;;;3.63;;
16832;SDS011;8533;48.426;10.868;2023-10-09T13:21:58;14.17;;;3.90;;
16832;SDS011;8533;48.426;10.868;2023-10-09T13:24:27;15.03;;;3.80;;
16832;SDS011;8533;48.426;10.868;2023-10-09T13:26:54;14.60;;;4.43;;
16832;SDS011;8533;48.426;10.868;2023-10-09T13:29:23;16.97;;;3.87;;
16832;SDS011;8533;48.426;10.868;2023-10-09T13:31:49;11.67;;;3.57;;
16832;SDS011;8533;48.426;10.868;2023-10-09T13:34:17;13.90;;;3.60;;
16832;SDS011;8533;48.426;10.868;2023-10-09T13:36:43;10.00;;;3.70;;
16832;SDS011;8533;48.426;10.868;2023-10-09T13:39:23;9.63;;;4.17;;
16832;SDS011;8533;48.426;10.868;2023-10-09T13:41:53;12.00;;;3.97;;
16832;SDS011;8533;48.426;10.868;2023-10-09T13:44:32;7.70;;;3.73;;
16832;SDS011;8533;48.426;10.868;2023-10-09T13:47:02;11.53;;;3.53;;
16832;SDS011;8533;48.426;10.868;2023-10-09T13:49:33;13.30;;;3.50;;
16832;SDS011;8533;48.426;10.868;2023-10-09T13:51:59;13.83;;;3.90;;
16832;SDS011;8533;48.426;10.868;2023-10-09T13:54:26;13.07;;;3.83;;
16832;SDS011;8533;48.426;10.868;2023-10-09T13:57:00;13.73;;;3.37;;
16832;SDS011;8533;48.426;10.868;2023-10-09T13:59:29;12.60;;;3.77;;
16832;SDS011;8533;48.426;10.868;2023-10-09T14:01:55;20.27;;;4.63;;
16832;SDS011;8533;48.426;10.868;2023-10-09T14:04:21;9.23;;;3.40;;
16832;SDS011;8533;48.426;10.868;2023-10-09T14:06:48;15.10;;;3.70;;
16832;SDS011;8533;48.426;10.868;2023-10-09T14:09:23;16.97;;;5.10;;
16832;SDS011;8533;48.426;10.868;2023-10-09T14:12:10;11.73;;;3.43;;
16832;SDS011;8533;48.426;10.868;2023-10-09T14:14:39;20.77;;;4.33;;
16832;SDS011;8533;48.426;10.868;2023-10-09T14:17:12;14.10;;;3.77;;
16832;SDS011;8533;48.426;10.868;2023-10-09T14:19:42;11.60;;;3.37;;
16832;SDS011;8533;48.426;10.868;2023-10-09T14:22:12;11.40;;;3.70;;
16832;SDS011;8533;48.426;10.868;2023-10-09T14:24:42;13.97;;;4.03;;
16832;SDS011;8533;48.426;10.868;2023-10-09T14:27:10;8.17;;;3.70;;
16832;SDS011;8533;48.426;10.868;2023-10-09T14:29:42;12.77;;;3.83;;
16832;SDS011;8533;48.426;10.868;2023-10-09T14:32:09;15.20;;;3.60;;
16832;SDS011;8533;48.426;10.868;2023-10-09T14:34:38;18.50;;;3.80;;
16832;SDS011;8533;48.426;10.868;2023-10-09T14:37:11;15.30;;;3.87;;
16832;SDS011;8533;48.426;10.868;2023-10-09T14:39:37;12.00;;;3.73;;
16832;SDS011;8533;48.426;10.868;2023-10-09T14:42:03;15.03;;;4.03;;
16832;SDS011;8533;48.426;10.868;2023-10-09T14:44:34;11.33;;;4.40;;
16832;SDS011;8533;48.426;10.868;2023-10-09T14:47:06;19.30;;;4.40;;
16832;SDS011;8533;48.426;10.868;2023-10-09T14:49:33;16.10;;;4.43;;
16832;SDS011;8533;48.426;10.868;2023-10-09T14:52:00;15.30;;;3.70;;
16832;SDS011;8533;48.426;10.868;2023-10-09T14:54:26;19.50;;;4.07;;
16832;SDS011;8533;48.426;10.868;2023-10-09T14:56:52;11.77;;;3.80;;
16832;SDS011;8533;48.426;10.868;2023-10-09T14:59:19;16.23;;;3.43;;
16832;SDS011;8533;48.426;10.868;2023-10-09T15:01:47;10.67;;;3.60;;
16832;SDS011;8533;48.426;10.868;2023-10-09T15:04:14;14.07;;;3.53;;
16832;SDS011;8533;48.426;10.868;2023-10-09T15:06:40;15.47;;;4.00;;
16832;SDS011;8533;48.426;10.868;2023-10-09T15:09:05;14.73;;;3.90;;
16832;SDS011;8533;48.426;10.868;2023-10-09T15:11:34;18.63;;;3.83;;
16832;SDS011;8533;48.426;10.868;2023-10-09T15:14:03;18.07;;;4.27;;
16832;SDS011;8533;48.426;10.868;2023-10-09T15:16:31;12.37;;;3.77;;
16832;SDS011;8533;48.426;10.868;2023-10-09T15:18:57;11.07;;;3.40;;
16832;SDS011;8533;48.426;10.868;2023-10-09T15:21:23;12.77;;;3.33;;
16832;SDS011;8533;48.426;10.868;2023-10-09T15:23:52;15.47;;;3.67;;
16832;SDS011;8533;48.426;10.868;2023-10-09T15:26:20;12.40;;;3.33;;
16832;SDS011;8533;48.426;10.868;2023-10-09T15:28:47;16.27;;;3.90;;
16832;SDS011;8533;48.426;10.868;2023-10-09T15:31:14;19.73;;;3.80;;
16832;SDS011;8533;48.426;10.868;2023-10-09T15:33:41;13.53;;;3.90;;